sensor_id;sensor_type;location;lat;lon;timestamp;P1;durP1;ratioP1;P2;durP2;ratioP2
33593;SDS011;19920;52.242;20.940;2024-01-30T00:01:19;42.03;;;20.42;;
33593;SDS011;19920;52.242;20.940;2024-01-30T00:03:44;41.90;;;21.40;;
33593;SDS011;19920;52.242;20.940;2024-01-30T00:06:11;42.60;;;21.15;;
33593;SDS011;19920;52.242;20.940;2024-01-30T00:08:37;48.28;;;22.42;;
33593;SDS011;19920;52.242;20.940;2024-01-30T00:11:02;39.15;;;20.73;;
33593;SDS011;19920;52.242;20.940;2024-01-30T00:13:28;43.20;;;21.42;;
33593;SDS011;19920;52.242;20.940;2024-01-30T00:15:54;43.95;;;21.55;;
33593;SDS011;19920;52.242;20.940;2024-01-30T00:18:19;39.80;;;20.75;;
33593;SDS011;19920;52.242;20.940;2024-01-30T00:20:45;39.17;;;21.33;;
33593;SDS011;19920;52.242;20.940;2024-01-30T00:23:10;37.05;;;19.70;;
33593;SDS011;19920;52.242;20.940;2024-01-30T00:25:36;38.42;;;20.33;;
33593;SDS011;19920;52.242;20.940;2024-01-30T00:28:02;42.95;;;20.75;;
33593;SDS011;19920;52.242;20.940;2024-01-30T00:30:27;43.33;;;21.15;;
33593;SDS011;19920;52.242;20.940;2024-01-30T00:32:53;40.35;;;19.83;;
33593;SDS011;19920;52.242;20.940;2024-01-30T00:35:19;39.33;;;20.88;;
33593;SDS011;19920;52.242;20.940;2024-01-30T00:37:47;41.42;;;20.90;;
33593;SDS011;19920;52.242;20.940;2024-01-30T00:40:12;43.00;;;20.73;;
33593;SDS011;19920;52.242;20.940;2024-01-30T00:42:41;38.13;;;20.17;;
33593;SDS011;19920;52.242;20.940;2024-01-30T00:45:14;40.53;;;20.50;;
33593;SDS011;19920;52.242;20.940;2024-01-30T00:47:40;40.50;;;20.70;;
33593;SDS011;19920;52.242;20.940;2024-01-30T00:50:06;41.88;;;21.42;;
33593;SDS011;19920;52.242;20.940;2024-01-30T00:52:32;39.10;;;20.02;;
33593;SDS011;19920;52.242;20.940;2024-01-30T00:54:58;41.50;;;20.52;;
33593;SDS011;19920;52.242;20.940;2024-01-30T00:57:24;43.53;;;21.02;;
33593;SDS011;19920;52.242;20.940;2024-01-30T00:59:49;41.40;;;20.77;;
33593;SDS011;19920;52.242;20.940;2024-01-30T01:02:15;38.63;;;20.05;;
33593;SDS011;19920;52.242;20.940;2024-01-30T01:04:42;39.13;;;20.58;;
33593;SDS011;19920;52.242;20.940;2024-01-30T01:07:09;37.45;;;19.63;;
33593;SDS011;19920;52.242;20.940;2024-01-30T01:09:35;39.75;;;20.70;;
33593;SDS011;19920;52.242;20.940;2024-01-30T01:12:01;41.70;;;21.05;;
33593;SDS011;19920;52.242;20.940;2024-01-30T01:14:27;43.67;;;20.77;;
33593;SDS011;19920;52.242;20.940;2024-01-30T01:16:52;40.70;;;20.13;;
33593;SDS011;19920;52.242;20.940;2024-01-30T01:19:18;41.15;;;20.48;;
33593;SDS011;19920;52.242;20.940;2024-01-30T01:21:43;40.92;;;20.65;;
33593;SDS011;19920;52.242;20.940;2024-01-30T01:24:09;41.78;;;21.08;;
33593;SDS011;19920;52.242;20.940;2024-01-30T01:26:34;39.35;;;20.35;;
33593;SDS011;19920;52.242;20.940;2024-01-30T01:29:00;38.85;;;20.08;;
33593;SDS011;19920;52.242;20.940;2024-01-30T01:31:25;43.53;;;21.90;;
33593;SDS011;19920;52.242;20.940;2024-01-30T01:33:54;41.42;;;20.77;;
33593;SDS011;19920;52.242;20.940;2024-01-30T01:36:20;40.00;;;20.55;;
33593;SDS011;19920;52.242;20.940;2024-01-30T01:38:45;43.47;;;20.23;;
33593;SDS011;19920;52.242;20.940;2024-01-30T01:41:11;41.35;;;20.75;;
33593;SDS011;19920;52.242;20.940;2024-01-30T01:43:36;44.40;;;20.73;;
33593;SDS011;19920;52.242;20.940;2024-01-30T01:46:04;39.03;;;21.17;;
33593;SDS011;19920;52.242;20.940;2024-01-30T01:48:30;42.95;;;21.50;;
33593;SDS011;19920;52.242;20.940;2024-01-30T01:50:55;38.63;;;19.67;;
33593;SDS011;19920;52.242;20.940;2024-01-30T01:53:21;44.00;;;20.17;;
33593;SDS011;19920;52.242;20.940;2024-01-30T01:55:47;42.10;;;20.17;;
33593;SDS011;19920;52.242;20.940;2024-01-30T01:58:13;39.65;;;20.40;;
33593;SDS011;19920;52.242;20.940;2024-01-30T02:00:39;40.90;;;19.98;;
33593;SDS011;19920;52.242;20.940;2024-01-30T02:03:06;40.90;;;20.25;;
33593;SDS011;19920;52.242;20.940;2024-01-30T02:05:36;39.47;;;20.45;;
33593;SDS011;19920;52.242;20.940;2024-01-30T02:08:01;39.40;;;21.08;;
33593;SDS011;19920;52.242;20.940;2024-01-30T02:10:28;38.80;;;20.02;;
33593;SDS011;19920;52.242;20.940;2024-01-30T02:12:53;40.42;;;19.83;;
33593;SDS011;19920;52.242;20.940;2024-01-30T02:15:19;40.15;;;20.90;;
33593;SDS011;19920;52.242;20.940;2024-01-30T02:17:45;42.33;;;20.10;;
33593;SDS011;19920;52.242;20.940;2024-01-30T02:20:10;41.20;;;21.38;;
33593;SDS011;19920;52.242;20.940;2024-01-30T02:22:36;39.75;;;19.63;;
33593;SDS011;19920;52.242;20.940;2024-01-30T02:25:03;40.63;;;19.95;;
33593;SDS011;19920;52.242;20.940;2024-01-30T02:27:29;42.40;;;20.75;;
33593;SDS011;19920;52.242;20.940;2024-01-30T02:29:55;42.97;;;20.73;;
33593;SDS011;19920;52.242;20.940;2024-01-30T02:32:20;37.30;;;19.30;;
33593;SDS011;19920;52.242;20.940;2024-01-30T02:34:46;38.15;;;18.95;;
33593;SDS011;19920;52.242;20.940;2024-01-30T02:37:11;36.47;;;19.85;;
33593;SDS011;19920;52.242;20.940;2024-01-30T02:39:37;39.67;;;19.80;;
33593;SDS011;19920;52.242;20.940;2024-01-30T02:42:02;42.63;;;19.73;;
33593;SDS011;19920;52.242;20.940;2024-01-30T02:44:28;34.95;;;18.58;;
33593;SDS011;19920;52.242;20.940;2024-01-30T02:46:54;34.72;;;19.00;;
33593;SDS011;19920;52.242;20.940;2024-01-30T02:49:20;38.92;;;18.90;;
33593;SDS011;19920;52.242;20.940;2024-01-30T02:51:46;39.10;;;19.70;;
33593;SDS011;19920;52.242;20.940;2024-01-30T02:54:11;36.88;;;19.13;;
33593;SDS011;19920;52.242;20.940;2024-01-30T02:56:37;37.25;;;18.77;;
33593;SDS011;19920;52.242;20.940;2024-01-30T02:59:02;39.88;;;19.95;;
33593;SDS011;19920;52.242;20.940;2024-01-30T03:01:28;36.30;;;18.83;;
33593;SDS011;19920;52.242;20.940;2024-01-30T03:03:53;38.30;;;19.88;;
33593;SDS011;19920;52.242;20.940;2024-01-30T03:06:19;38.95;;;19.52;;
33593;SDS011;19920;52.242;20.940;2024-01-30T03:08:45;37.03;;;18.88;;
33593;SDS011;19920;52.242;20.940;2024-01-30T03:11:11;37.05;;;18.38;;
33593;SDS011;19920;52.242;20.940;2024-01-30T03:13:36;37.20;;;18.90;;
33593;SDS011;19920;52.242;20.940;2024-01-30T03:16:02;36.17;;;18.85;;
33593;SDS011;19920;52.242;20.940;2024-01-30T03:18:27;35.63;;;18.40;;
33593;SDS011;19920;52.242;20.940;2024-01-30T03:20:53;38.60;;;19.13;;
33593;SDS011;19920;52.242;20.940;2024-01-30T03:23:18;35.78;;;18.40;;
33593;SDS011;19920;52.242;20.940;2024-01-30T03:25:44;39.13;;;18.60;;
33593;SDS011;19920;52.242;20.940;2024-01-30T03:28:10;35.50;;;17.90;;
33593;SDS011;19920;52.242;20.940;2024-01-30T03:30:35;39.53;;;19.52;;
33593;SDS011;19920;52.242;20.940;2024-01-30T03:33:01;36.03;;;18.63;;
33593;SDS011;19920;52.242;20.940;2024-01-30T03:35:27;34.90;;;17.83;;
33593;SDS011;19920;52.242;20.940;2024-01-30T03:37:53;37.90;;;18.08;;
33593;SDS011;19920;52.242;20.940;2024-01-30T03:40:18;37.75;;;18.17;;
33593;SDS011;19920;52.242;20.940;2024-01-30T03:42:44;35.55;;;18.92;;
33593;SDS011;19920;52.242;20.940;2024-01-30T03:45:10;34.85;;;18.58;;
33593;SDS011;19920;52.242;20.940;2024-01-30T03:47:36;39.08;;;19.17;;
33593;SDS011;19920;52.242;20.940;2024-01-30T03:50:01;37.33;;;18.02;;
33593;SDS011;19920;52.242;20.940;2024-01-30T03:52:27;34.90;;;18.20;;
33593;SDS011;19920;52.242;20.940;2024-01-30T03:54:52;36.50;;;17.92;;
33593;SDS011;19920;52.242;20.940;2024-01-30T03:57:18;35.40;;;19.67;;
33593;SDS011;19920;52.242;20.940;2024-01-30T03:59:43;33.13;;;17.95;;
33593;SDS011;19920;52.242;20.940;2024-01-30T04:02:12;36.63;;;18.73;;
33593;SDS011;19920;52.242;20.940;2024-01-30T04:04:38;36.78;;;17.80;;
33593;SDS011;19920;52.242;20.940;2024-01-30T04:07:03;35.50;;;17.92;;
33593;SDS011;19920;52.242;20.940;2024-01-30T04:09:29;41.40;;;18.48;;
33593;SDS011;19920;52.242;20.940;2024-01-30T04:11:54;33.53;;;17.15;;
33593;SDS011;19920;52.242;20.940;2024-01-30T04:14:20;35.05;;;17.85;;
33593;SDS011;19920;52.242;20.940;2024-01-30T04:16:45;37.47;;;17.90;;
33593;SDS011;19920;52.242;20.940;2024-01-30T04:19:11;36.13;;;17.83;;
33593;SDS011;19920;52.242;20.940;2024-01-30T04:21:37;38.05;;;18.17;;
33593;SDS011;19920;52.242;20.940;2024-01-30T04:24:02;31.52;;;17.17;;
33593;SDS011;19920;52.242;20.940;2024-01-30T04:26:28;37.55;;;18.33;;
33593;SDS011;19920;52.242;20.940;2024-01-30T04:28:53;32.47;;;18.40;;
33593;SDS011;19920;52.242;20.940;2024-01-30T04:31:19;36.10;;;18.35;;
33593;SDS011;19920;52.242;20.940;2024-01-30T04:33:45;36.05;;;17.55;;
33593;SDS011;19920;52.242;20.940;2024-01-30T04:36:10;40.03;;;19.20;;
33593;SDS011;19920;52.242;20.940;2024-01-30T04:38:36;32.90;;;17.65;;
33593;SDS011;19920;52.242;20.940;2024-01-30T04:41:03;36.97;;;18.95;;
33593;SDS011;19920;52.242;20.940;2024-01-30T04:43:29;32.67;;;17.20;;
33593;SDS011;19920;52.242;20.940;2024-01-30T04:45:55;40.20;;;18.73;;
33593;SDS011;19920;52.242;20.940;2024-01-30T04:48:20;36.28;;;18.13;;
33593;SDS011;19920;52.242;20.940;2024-01-30T04:50:46;32.72;;;17.48;;
33593;SDS011;19920;52.242;20.940;2024-01-30T04:53:11;35.10;;;17.80;;
33593;SDS011;19920;52.242;20.940;2024-01-30T04:55:37;35.60;;;17.73;;
33593;SDS011;19920;52.242;20.940;2024-01-30T04:58:02;33.28;;;17.38;;
33593;SDS011;19920;52.242;20.940;2024-01-30T05:00:28;34.30;;;17.80;;
33593;SDS011;19920;52.242;20.940;2024-01-30T05:02:57;37.13;;;18.23;;
33593;SDS011;19920;52.242;20.940;2024-01-30T05:05:22;33.38;;;17.45;;
33593;SDS011;19920;52.242;20.940;2024-01-30T05:07:48;34.65;;;17.73;;
33593;SDS011;19920;52.242;20.940;2024-01-30T05:10:14;37.45;;;18.45;;
33593;SDS011;19920;52.242;20.940;2024-01-30T05:12:40;32.70;;;17.52;;
33593;SDS011;19920;52.242;20.940;2024-01-30T05:15:06;34.53;;;18.30;;
33593;SDS011;19920;52.242;20.940;2024-01-30T05:17:31;37.47;;;17.70;;
33593;SDS011;19920;52.242;20.940;2024-01-30T05:19:58;36.90;;;17.85;;
33593;SDS011;19920;52.242;20.940;2024-01-30T05:22:23;34.25;;;18.13;;
33593;SDS011;19920;52.242;20.940;2024-01-30T05:24:49;34.65;;;18.08;;
33593;SDS011;19920;52.242;20.940;2024-01-30T05:27:14;33.75;;;17.83;;
33593;SDS011;19920;52.242;20.940;2024-01-30T05:29:40;36.95;;;18.55;;
33593;SDS011;19920;52.242;20.940;2024-01-30T05:32:06;34.17;;;18.48;;
33593;SDS011;19920;52.242;20.940;2024-01-30T05:34:31;38.42;;;18.33;;
33593;SDS011;19920;52.242;20.940;2024-01-30T05:36:57;37.15;;;18.73;;
33593;SDS011;19920;52.242;20.940;2024-01-30T05:39:23;35.08;;;17.52;;
33593;SDS011;19920;52.242;20.940;2024-01-30T05:41:49;35.38;;;17.95;;
33593;SDS011;19920;52.242;20.940;2024-01-30T05:44:14;36.15;;;17.88;;
33593;SDS011;19920;52.242;20.940;2024-01-30T05:46:40;33.67;;;17.90;;
33593;SDS011;19920;52.242;20.940;2024-01-30T05:49:06;36.47;;;17.83;;
33593;SDS011;19920;52.242;20.940;2024-01-30T05:51:32;34.70;;;18.48;;
33593;SDS011;19920;52.242;20.940;2024-01-30T05:53:57;34.00;;;17.73;;
33593;SDS011;19920;52.242;20.940;2024-01-30T05:56:24;34.15;;;18.17;;
33593;SDS011;19920;52.242;20.940;2024-01-30T05:58:50;34.53;;;18.25;;
33593;SDS011;19920;52.242;20.940;2024-01-30T06:01:16;35.67;;;19.00;;
33593;SDS011;19920;52.242;20.940;2024-01-30T06:03:41;38.15;;;19.08;;
33593;SDS011;19920;52.242;20.940;2024-01-30T06:06:08;33.20;;;17.73;;
33593;SDS011;19920;52.242;20.940;2024-01-30T06:08:34;37.63;;;18.20;;
33593;SDS011;19920;52.242;20.940;2024-01-30T06:11:00;37.20;;;18.50;;
33593;SDS011;19920;52.242;20.940;2024-01-30T06:13:26;37.50;;;19.17;;
33593;SDS011;19920;52.242;20.940;2024-01-30T06:15:52;37.05;;;18.30;;
33593;SDS011;19920;52.242;20.940;2024-01-30T06:18:17;37.75;;;18.00;;
33593;SDS011;19920;52.242;20.940;2024-01-30T06:20:43;36.72;;;18.17;;
33593;SDS011;19920;52.242;20.940;2024-01-30T06:23:09;34.85;;;17.83;;
33593;SDS011;19920;52.242;20.940;2024-01-30T06:25:34;38.80;;;17.42;;
33593;SDS011;19920;52.242;20.940;2024-01-30T06:28:00;37.92;;;18.17;;
33593;SDS011;19920;52.242;20.940;2024-01-30T06:30:25;35.53;;;17.92;;
33593;SDS011;19920;52.242;20.940;2024-01-30T06:32:51;36.72;;;17.75;;
33593;SDS011;19920;52.242;20.940;2024-01-30T06:35:16;34.40;;;17.75;;
33593;SDS011;19920;52.242;20.940;2024-01-30T06:37:42;32.85;;;17.55;;
33593;SDS011;19920;52.242;20.940;2024-01-30T06:40:08;33.53;;;17.65;;
33593;SDS011;19920;52.242;20.940;2024-01-30T06:42:34;33.95;;;17.52;;
33593;SDS011;19920;52.242;20.940;2024-01-30T06:45:00;35.35;;;17.67;;
33593;SDS011;19920;52.242;20.940;2024-01-30T06:47:25;35.95;;;17.63;;
33593;SDS011;19920;52.242;20.940;2024-01-30T06:49:51;34.20;;;17.67;;
33593;SDS011;19920;52.242;20.940;2024-01-30T06:52:16;34.60;;;17.45;;
33593;SDS011;19920;52.242;20.940;2024-01-30T06:54:42;33.10;;;16.70;;
33593;SDS011;19920;52.242;20.940;2024-01-30T06:57:07;35.28;;;17.42;;
33593;SDS011;19920;52.242;20.940;2024-01-30T06:59:36;33.70;;;17.65;;
33593;SDS011;19920;52.242;20.940;2024-01-30T07:02:02;35.17;;;17.55;;
33593;SDS011;19920;52.242;20.940;2024-01-30T07:04:28;34.83;;;17.05;;
33593;SDS011;19920;52.242;20.940;2024-01-30T07:06:53;34.65;;;17.30;;
33593;SDS011;19920;52.242;20.940;2024-01-30T07:09:19;34.47;;;17.38;;
33593;SDS011;19920;52.242;20.940;2024-01-30T07:11:45;34.35;;;17.60;;
33593;SDS011;19920;52.242;20.940;2024-01-30T07:14:10;33.88;;;17.42;;
33593;SDS011;19920;52.242;20.940;2024-01-30T07:16:36;35.45;;;17.33;;
33593;SDS011;19920;52.242;20.940;2024-01-30T07:19:01;35.80;;;16.60;;
33593;SDS011;19920;52.242;20.940;2024-01-30T07:21:27;34.85;;;17.45;;
33593;SDS011;19920;52.242;20.940;2024-01-30T07:23:56;34.38;;;17.63;;
33593;SDS011;19920;52.242;20.940;2024-01-30T07:26:22;36.20;;;17.60;;
33593;SDS011;19920;52.242;20.940;2024-01-30T07:28:47;30.52;;;17.77;;
33593;SDS011;19920;52.242;20.940;2024-01-30T07:31:13;36.47;;;18.65;;
33593;SDS011;19920;52.242;20.940;2024-01-30T07:33:39;34.95;;;17.92;;
33593;SDS011;19920;52.242;20.940;2024-01-30T07:36:04;33.38;;;16.88;;
33593;SDS011;19920;52.242;20.940;2024-01-30T07:38:33;33.88;;;17.42;;
33593;SDS011;19920;52.242;20.940;2024-01-30T07:40:59;32.03;;;16.02;;
33593;SDS011;19920;52.242;20.940;2024-01-30T07:43:25;35.78;;;16.77;;
33593;SDS011;19920;52.242;20.940;2024-01-30T07:45:50;33.92;;;17.48;;
33593;SDS011;19920;52.242;20.940;2024-01-30T07:48:16;32.40;;;17.00;;
33593;SDS011;19920;52.242;20.940;2024-01-30T07:50:42;33.45;;;18.48;;
33593;SDS011;19920;52.242;20.940;2024-01-30T07:53:07;34.92;;;17.08;;
33593;SDS011;19920;52.242;20.940;2024-01-30T07:55:33;34.22;;;17.80;;
33593;SDS011;19920;52.242;20.940;2024-01-30T07:57:58;32.60;;;17.50;;
33593;SDS011;19920;52.242;20.940;2024-01-30T08:00:25;30.95;;;16.48;;
33593;SDS011;19920;52.242;20.940;2024-01-30T08:02:50;36.55;;;17.83;;
33593;SDS011;19920;52.242;20.940;2024-01-30T08:05:19;33.42;;;17.30;;
33593;SDS011;19920;52.242;20.940;2024-01-30T08:07:47;31.83;;;16.92;;
33593;SDS011;19920;52.242;20.940;2024-01-30T08:10:13;37.80;;;17.60;;
33593;SDS011;19920;52.242;20.940;2024-01-30T08:12:39;35.60;;;17.38;;
33593;SDS011;19920;52.242;20.940;2024-01-30T08:15:05;34.03;;;18.20;;
33593;SDS011;19920;52.242;20.940;2024-01-30T08:17:32;34.72;;;17.60;;
33593;SDS011;19920;52.242;20.940;2024-01-30T08:19:58;36.53;;;17.35;;
33593;SDS011;19920;52.242;20.940;2024-01-30T08:22:23;34.90;;;16.92;;
33593;SDS011;19920;52.242;20.940;2024-01-30T08:24:49;36.13;;;17.08;;
33593;SDS011;19920;52.242;20.940;2024-01-30T08:27:15;36.25;;;17.25;;
33593;SDS011;19920;52.242;20.940;2024-01-30T08:29:41;33.00;;;17.70;;
33593;SDS011;19920;52.242;20.940;2024-01-30T08:32:07;32.47;;;16.77;;
33593;SDS011;19920;52.242;20.940;2024-01-30T08:34:33;34.38;;;17.35;;
33593;SDS011;19920;52.242;20.940;2024-01-30T08:36:58;36.33;;;16.38;;
33593;SDS011;19920;52.242;20.940;2024-01-30T08:39:24;30.85;;;16.23;;
33593;SDS011;19920;52.242;20.940;2024-01-30T08:41:50;30.98;;;15.82;;
33593;SDS011;19920;52.242;20.940;2024-01-30T08:44:15;32.50;;;16.13;;
33593;SDS011;19920;52.242;20.940;2024-01-30T08:46:42;32.55;;;15.80;;
33593;SDS011;19920;52.242;20.940;2024-01-30T08:49:09;27.65;;;14.98;;
33593;SDS011;19920;52.242;20.940;2024-01-30T08:51:35;28.55;;;15.70;;
33593;SDS011;19920;52.242;20.940;2024-01-30T08:54:01;30.98;;;15.30;;
33593;SDS011;19920;52.242;20.940;2024-01-30T08:56:27;28.30;;;14.82;;
33593;SDS011;19920;52.242;20.940;2024-01-30T08:58:53;30.50;;;14.93;;
33593;SDS011;19920;52.242;20.940;2024-01-30T09:01:19;28.45;;;13.05;;
33593;SDS011;19920;52.242;20.940;2024-01-30T09:03:44;25.38;;;13.63;;
33593;SDS011;19920;52.242;20.940;2024-01-30T09:06:12;25.55;;;12.98;;
33593;SDS011;19920;52.242;20.940;2024-01-30T09:08:38;21.60;;;12.63;;
33593;SDS011;19920;52.242;20.940;2024-01-30T09:11:08;24.67;;;12.88;;
33593;SDS011;19920;52.242;20.940;2024-01-30T09:13:38;22.73;;;12.73;;
33593;SDS011;19920;52.242;20.940;2024-01-30T09:16:04;27.13;;;13.40;;
33593;SDS011;19920;52.242;20.940;2024-01-30T09:18:30;24.95;;;12.35;;
33593;SDS011;19920;52.242;20.940;2024-01-30T09:20:56;21.70;;;12.30;;
33593;SDS011;19920;52.242;20.940;2024-01-30T09:23:22;25.08;;;12.10;;
33593;SDS011;19920;52.242;20.940;2024-01-30T09:25:47;23.95;;;11.57;;
33593;SDS011;19920;52.242;20.940;2024-01-30T09:28:13;22.63;;;12.00;;
33593;SDS011;19920;52.242;20.940;2024-01-30T09:30:39;20.67;;;10.90;;
33593;SDS011;19920;52.242;20.940;2024-01-30T09:33:05;21.35;;;11.05;;
33593;SDS011;19920;52.242;20.940;2024-01-30T09:35:31;17.55;;;10.65;;
33593;SDS011;19920;52.242;20.940;2024-01-30T09:37:57;20.02;;;10.15;;
33593;SDS011;19920;52.242;20.940;2024-01-30T09:40:23;19.63;;;10.65;;
33593;SDS011;19920;52.242;20.940;2024-01-30T09:42:52;21.98;;;10.35;;
33593;SDS011;19920;52.242;20.940;2024-01-30T09:45:19;22.30;;;11.50;;
33593;SDS011;19920;52.242;20.940;2024-01-30T09:47:49;21.50;;;10.55;;
33593;SDS011;19920;52.242;20.940;2024-01-30T09:50:15;20.80;;;10.77;;
33593;SDS011;19920;52.242;20.940;2024-01-30T09:52:42;17.48;;;9.70;;
33593;SDS011;19920;52.242;20.940;2024-01-30T09:55:09;24.08;;;11.63;;
33593;SDS011;19920;52.242;20.940;2024-01-30T09:57:35;23.83;;;11.30;;
33593;SDS011;19920;52.242;20.940;2024-01-30T10:00:02;20.15;;;10.90;;
33593;SDS011;19920;52.242;20.940;2024-01-30T10:02:29;22.20;;;11.25;;
33593;SDS011;19920;52.242;20.940;2024-01-30T10:05:02;23.20;;;10.77;;
33593;SDS011;19920;52.242;20.940;2024-01-30T10:07:28;19.17;;;10.52;;
33593;SDS011;19920;52.242;20.940;2024-01-30T10:09:55;21.42;;;10.18;;
33593;SDS011;19920;52.242;20.940;2024-01-30T10:12:21;26.05;;;11.27;;
33593;SDS011;19920;52.242;20.940;2024-01-30T10:14:47;21.58;;;10.68;;
33593;SDS011;19920;52.242;20.940;2024-01-30T10:17:13;24.48;;;10.13;;
33593;SDS011;19920;52.242;20.940;2024-01-30T10:19:39;18.45;;;10.65;;
33593;SDS011;19920;52.242;20.940;2024-01-30T10:22:06;18.42;;;10.38;;
33593;SDS011;19920;52.242;20.940;2024-01-30T10:24:33;18.00;;;9.95;;
33593;SDS011;19920;52.242;20.940;2024-01-30T10:26:59;19.40;;;10.85;;
33593;SDS011;19920;52.242;20.940;2024-01-30T10:29:25;23.83;;;10.43;;
33593;SDS011;19920;52.242;20.940;2024-01-30T10:32:03;21.60;;;10.93;;
33593;SDS011;19920;52.242;20.940;2024-01-30T10:34:30;19.15;;;10.02;;
33593;SDS011;19920;52.242;20.940;2024-01-30T10:36:59;22.27;;;10.48;;
33593;SDS011;19920;52.242;20.940;2024-01-30T10:39:40;21.92;;;10.45;;
33593;SDS011;19920;52.242;20.940;2024-01-30T10:42:10;18.40;;;10.15;;
33593;SDS011;19920;52.242;20.940;2024-01-30T10:45:02;24.45;;;10.45;;
33593;SDS011;19920;52.242;20.940;2024-01-30T10:47:39;21.38;;;10.68;;
33593;SDS011;19920;52.242;20.940;2024-01-30T10:50:08;20.30;;;10.25;;
33593;SDS011;19920;52.242;20.940;2024-01-30T10:52:35;20.90;;;10.20;;
33593;SDS011;19920;52.242;20.940;2024-01-30T10:55:01;18.17;;;10.60;;
33593;SDS011;19920;52.242;20.940;2024-01-30T10:57:30;24.17;;;10.43;;
33593;SDS011;19920;52.242;20.940;2024-01-30T11:00:06;18.17;;;10.50;;
33593;SDS011;19920;52.242;20.940;2024-01-30T11:02:40;21.02;;;10.32;;
33593;SDS011;19920;52.242;20.940;2024-01-30T11:05:08;21.52;;;11.15;;
33593;SDS011;19920;52.242;20.940;2024-01-30T11:07:33;20.67;;;10.60;;
33593;SDS011;19920;52.242;20.940;2024-01-30T11:12:27;20.40;;;9.93;;
33593;SDS011;19920;52.242;20.940;2024-01-30T11:15:04;22.17;;;10.65;;
33593;SDS011;19920;52.242;20.940;2024-01-30T11:20:21;18.85;;;9.95;;
33593;SDS011;19920;52.242;20.940;2024-01-30T11:22:51;24.90;;;11.68;;
33593;SDS011;19920;52.242;20.940;2024-01-30T11:25:19;18.35;;;9.70;;
33593;SDS011;19920;52.242;20.940;2024-01-30T11:27:46;20.63;;;10.43;;
33593;SDS011;19920;52.242;20.940;2024-01-30T11:30:30;22.17;;;10.38;;
33593;SDS011;19920;52.242;20.940;2024-01-30T11:33:08;17.17;;;10.05;;
33593;SDS011;19920;52.242;20.940;2024-01-30T11:38:09;18.70;;;10.05;;
33593;SDS011;19920;52.242;20.940;2024-01-30T11:40:37;17.52;;;10.23;;
33593;SDS011;19920;52.242;20.940;2024-01-30T11:43:04;19.23;;;9.90;;
33593;SDS011;19920;52.242;20.940;2024-01-30T11:45:32;18.02;;;10.20;;
33593;SDS011;19920;52.242;20.940;2024-01-30T11:47:58;20.50;;;10.95;;
33593;SDS011;19920;52.242;20.940;2024-01-30T11:53:00;20.83;;;10.57;;
33593;SDS011;19920;52.242;20.940;2024-01-30T11:55:26;20.88;;;9.98;;
33593;SDS011;19920;52.242;20.940;2024-01-30T11:57:57;20.40;;;10.30;;
33593;SDS011;19920;52.242;20.940;2024-01-30T12:00:23;20.67;;;9.63;;
33593;SDS011;19920;52.242;20.940;2024-01-30T12:02:50;19.50;;;9.90;;
33593;SDS011;19920;52.242;20.940;2024-01-30T12:05:20;16.77;;;9.65;;
33593;SDS011;19920;52.242;20.940;2024-01-30T12:07:49;20.05;;;10.73;;
33593;SDS011;19920;52.242;20.940;2024-01-30T12:10:15;15.30;;;9.98;;
33593;SDS011;19920;52.242;20.940;2024-01-30T12:12:50;17.77;;;10.27;;
33593;SDS011;19920;52.242;20.940;2024-01-30T12:15:16;20.92;;;11.30;;
33593;SDS011;19920;52.242;20.940;2024-01-30T12:17:43;21.90;;;11.20;;
33593;SDS011;19920;52.242;20.940;2024-01-30T12:20:09;19.88;;;11.13;;
33593;SDS011;19920;52.242;20.940;2024-01-30T12:22:44;18.73;;;10.80;;
33593;SDS011;19920;52.242;20.940;2024-01-30T12:25:12;19.50;;;10.95;;
33593;SDS011;19920;52.242;20.940;2024-01-30T12:27:46;19.70;;;11.45;;
33593;SDS011;19920;52.242;20.940;2024-01-30T12:30:16;21.65;;;11.40;;
33593;SDS011;19920;52.242;20.940;2024-01-30T12:32:43;16.98;;;10.02;;
33593;SDS011;19920;52.242;20.940;2024-01-30T12:35:11;17.88;;;10.27;;
33593;SDS011;19920;52.242;20.940;2024-01-30T12:37:38;21.15;;;11.07;;
33593;SDS011;19920;52.242;20.940;2024-01-30T12:40:04;20.48;;;11.55;;
33593;SDS011;19920;52.242;20.940;2024-01-30T12:42:31;19.50;;;10.85;;
33593;SDS011;19920;52.242;20.940;2024-01-30T12:44:57;17.30;;;10.15;;
33593;SDS011;19920;52.242;20.940;2024-01-30T12:47:23;21.58;;;11.02;;
33593;SDS011;19920;52.242;20.940;2024-01-30T12:49:49;17.80;;;10.95;;
33593;SDS011;19920;52.242;20.940;2024-01-30T12:52:18;23.52;;;10.55;;
33593;SDS011;19920;52.242;20.940;2024-01-30T12:54:44;16.50;;;10.73;;
33593;SDS011;19920;52.242;20.940;2024-01-30T12:57:10;18.17;;;10.57;;
33593;SDS011;19920;52.242;20.940;2024-01-30T12:59:35;20.67;;;11.02;;
33593;SDS011;19920;52.242;20.940;2024-01-30T13:02:01;22.35;;;11.40;;
33593;SDS011;19920;52.242;20.940;2024-01-30T13:04:28;21.65;;;10.55;;
33593;SDS011;19920;52.242;20.940;2024-01-30T13:06:54;20.70;;;11.13;;
33593;SDS011;19920;52.242;20.940;2024-01-30T13:09:20;21.40;;;11.50;;
33593;SDS011;19920;52.242;20.940;2024-01-30T13:11:46;20.00;;;11.07;;
33593;SDS011;19920;52.242;20.940;2024-01-30T13:14:11;19.27;;;11.18;;
33593;SDS011;19920;52.242;20.940;2024-01-30T13:16:37;22.02;;;10.57;;
33593;SDS011;19920;52.242;20.940;2024-01-30T13:19:03;20.08;;;10.75;;
33593;SDS011;19920;52.242;20.940;2024-01-30T13:21:29;24.50;;;11.43;;
33593;SDS011;19920;52.242;20.940;2024-01-30T13:23:54;22.48;;;10.45;;
33593;SDS011;19920;52.242;20.940;2024-01-30T13:26:20;18.67;;;10.82;;
33593;SDS011;19920;52.242;20.940;2024-01-30T13:28:46;18.75;;;10.35;;
33593;SDS011;19920;52.242;20.940;2024-01-30T13:31:12;23.33;;;10.45;;
33593;SDS011;19920;52.242;20.940;2024-01-30T13:33:39;21.02;;;10.93;;
33593;SDS011;19920;52.242;20.940;2024-01-30T13:36:05;21.23;;;10.93;;
33593;SDS011;19920;52.242;20.940;2024-01-30T13:38:31;22.42;;;10.52;;
33593;SDS011;19920;52.242;20.940;2024-01-30T13:40:58;20.77;;;11.60;;
33593;SDS011;19920;52.242;20.940;2024-01-30T13:43:23;19.65;;;11.25;;
33593;SDS011;19920;52.242;20.940;2024-01-30T13:45:49;19.52;;;11.13;;
33593;SDS011;19920;52.242;20.940;2024-01-30T13:48:14;23.27;;;11.70;;
33593;SDS011;19920;52.242;20.940;2024-01-30T13:50:40;22.98;;;11.95;;
33593;SDS011;19920;52.242;20.940;2024-01-30T13:53:05;22.77;;;11.18;;
33593;SDS011;19920;52.242;20.940;2024-01-30T13:55:31;19.02;;;11.07;;
33593;SDS011;19920;52.242;20.940;2024-01-30T13:57:56;24.65;;;13.57;;
33593;SDS011;19920;52.242;20.940;2024-01-30T14:00:22;20.25;;;11.63;;
33593;SDS011;19920;52.242;20.940;2024-01-30T14:02:48;19.95;;;11.43;;
33593;SDS011;19920;52.242;20.940;2024-01-30T14:05:13;21.52;;;11.27;;
33593;SDS011;19920;52.242;20.940;2024-01-30T14:07:40;24.98;;;11.52;;
33593;SDS011;19920;52.242;20.940;2024-01-30T14:10:09;22.27;;;11.10;;
33593;SDS011;19920;52.242;20.940;2024-01-30T14:12:38;21.25;;;11.00;;
33593;SDS011;19920;52.242;20.940;2024-01-30T14:15:04;20.20;;;11.57;;